createdAt,value
2023-04-01T00:00:19.757Z,-0.39
2023-04-01T00:02:49.813Z,-0.38
2023-04-01T00:05:19.527Z,-0.34
2023-04-01T00:07:49.452Z,-0.33
2023-04-01T00:10:16.581Z,-0.36
2023-04-01T00:12:46.050Z,-0.33
2023-04-01T00:15:13.348Z,-0.34
2023-04-01T00:17:40.394Z,-0.33
2023-04-01T00:20:10.929Z,-0.39
2023-04-01T00:22:41.960Z,-0.37
2023-04-01T00:25:09.596Z,-0.36
2023-04-01T00:27:36.584Z,-0.33
2023-04-01T00:30:04.722Z,-0.32
2023-04-01T00:32:32.431Z,-0.38
2023-04-01T00:35:02.218Z,-0.40
2023-04-01T00:37:30.970Z,-0.38
2023-04-01T00:39:57.981Z,-0.41
2023-04-01T00:42:26.888Z,-0.41
2023-04-01T00:44:55.979Z,-0.40
2023-04-01T00:47:24.752Z,-0.38
2023-04-01T00:49:53.355Z,-0.36
2023-04-01T00:52:23.897Z,-0.30
2023-04-01T00:54:57.293Z,-0.25
2023-04-01T00:57:32.527Z,-0.22
2023-04-01T01:00:00.412Z,-0.23
2023-04-01T01:02:27.521Z,-0.25
2023-04-01T01:04:54.685Z,-0.26
2023-04-01T01:07:47.310Z,-0.25
2023-04-01T01:10:20.912Z,-0.26
2023-04-01T01:12:53.844Z,-0.26
2023-04-01T01:15:26.967Z,-0.26
2023-04-01T01:18:05.158Z,-0.29
2023-04-01T01:21:12.889Z,-0.28
2023-04-01T01:23:43.193Z,-0.31
2023-04-01T01:26:23.556Z,-0.24
2023-04-01T01:29:01.850Z,-0.22
2023-04-01T01:31:34.530Z,-0.23
2023-04-01T01:34:04.178Z,-0.26
2023-04-01T01:36:37.779Z,-0.24
2023-04-01T01:39:09.180Z,-0.25
2023-04-01T01:41:36.766Z,-0.16
2023-04-01T01:44:07.536Z,-0.14
2023-04-01T01:46:34.704Z,-0.17
2023-04-01T01:49:02.702Z,-0.13
2023-04-01T01:51:29.824Z,-0.12
2023-04-01T01:53:57.023Z,-0.14
2023-04-01T01:56:28.749Z,-0.18
2023-04-01T01:59:02.010Z,-0.22
2023-04-01T02:01:31.566Z,-0.27
2023-04-01T02:04:07.574Z,-0.34
2023-04-01T02:06:39.376Z,-0.35
2023-04-01T02:09:11.618Z,-0.39
2023-04-01T02:12:06.622Z,-0.40
2023-04-01T02:14:57.804Z,-0.45
2023-04-01T02:17:27.667Z,-0.40
2023-04-01T02:20:06.490Z,-0.33
2023-04-01T02:22:36.771Z,-0.27
2023-04-01T02:25:07.123Z,-0.27
2023-04-01T02:27:36.440Z,-0.32
2023-04-01T02:30:07.035Z,-0.38
2023-04-01T02:32:35.673Z,-0.41
2023-04-01T02:35:06.971Z,-0.37
2023-04-01T02:37:35.567Z,-0.31
2023-04-01T02:40:07.516Z,-0.33
2023-04-01T02:42:34.969Z,-0.32
2023-04-01T02:45:02.441Z,-0.34
2023-04-01T02:47:30.637Z,-0.33
2023-04-01T02:49:59.700Z,-0.29
2023-04-01T02:52:27.490Z,-0.36
2023-04-01T02:54:55.894Z,-0.37
2023-04-01T02:57:23.235Z,-0.39
2023-04-01T02:59:50.356Z,-0.40
2023-04-01T03:02:17.766Z,-0.40
2023-04-01T03:04:44.740Z,-0.41
2023-04-01T03:07:11.764Z,-0.40
2023-04-01T03:09:39.178Z,-0.41
2023-04-01T03:12:06.949Z,-0.44
2023-04-01T03:14:43.907Z,-0.43
2023-04-01T03:17:10.903Z,-0.47
2023-04-01T03:19:37.945Z,-0.48
2023-04-01T03:22:11.066Z,-0.49
2023-04-01T03:24:38.048Z,-0.45
2023-04-01T03:27:05.080Z,-0.44
2023-04-01T03:29:43.596Z,-0.45
2023-04-01T03:32:10.474Z,-0.44
2023-04-01T03:34:37.503Z,-0.40
2023-04-01T03:37:04.857Z,-0.39
2023-04-01T03:39:32.298Z,-0.40
2023-04-01T03:41:59.310Z,-0.38
2023-04-01T03:44:27.069Z,-0.39
2023-04-01T03:46:59.736Z,-0.38
2023-04-01T03:49:27.051Z,-0.32
2023-04-01T03:51:54.877Z,-0.34
2023-04-01T03:54:23.078Z,-0.38
2023-04-01T03:56:50.971Z,-0.34
2023-04-01T03:59:18.480Z,-0.30
2023-04-01T04:01:47.794Z,-0.30
2023-04-01T04:04:15.786Z,-0.32
2023-04-01T04:06:45.684Z,-0.32
2023-04-01T04:09:13.058Z,-0.27
2023-04-01T04:11:40.193Z,-0.28
2023-04-01T04:14:07.292Z,-0.25
2023-04-01T04:16:37.665Z,-0.22
2023-04-01T04:19:06.640Z,-0.23
2023-04-01T04:21:34.008Z,-0.21
2023-04-01T04:24:01.885Z,-0.15
2023-04-01T04:26:43.269Z,-0.09
2023-04-01T04:29:10.158Z,-0.02
2023-04-01T04:31:37.186Z,0.03
2023-04-01T04:34:04.508Z,0.08
2023-04-01T04:36:35.104Z,0.10
2023-04-01T04:39:04.256Z,0.12
2023-04-01T04:41:34.796Z,0.15
2023-04-01T04:44:05.844Z,0.21
2023-04-01T04:46:33.563Z,0.28
2023-04-01T04:49:11.513Z,0.34
2023-04-01T04:51:39.349Z,0.40
2023-04-01T04:54:07.749Z,0.41
2023-04-01T04:57:01.432Z,0.56
2023-04-01T04:59:32.701Z,0.60
2023-04-01T05:02:09.593Z,0.72
2023-04-01T05:04:37.753Z,0.74
2023-04-01T05:07:06.918Z,0.81
2023-04-01T05:09:35.066Z,0.89
2023-04-01T05:12:03.076Z,0.99
2023-04-01T05:14:42.748Z,0.90
2023-04-01T05:17:14.468Z,0.83
2023-04-01T05:19:41.501Z,0.80
2023-04-01T05:22:11.668Z,0.77
2023-04-01T05:24:39.085Z,0.76
2023-04-01T05:27:08.029Z,0.81
2023-04-01T05:29:41.243Z,0.81
2023-04-01T05:32:14.236Z,0.79
2023-04-01T05:34:41.652Z,0.88
2023-04-01T05:37:09.252Z,0.98
2023-04-01T05:39:45.008Z,0.99
2023-04-01T05:42:14.936Z,1.13
2023-04-01T05:44:42.217Z,1.14
2023-04-01T05:47:10.401Z,1.12
2023-04-01T05:49:38.108Z,1.07
2023-04-01T05:52:05.744Z,1.08
2023-04-01T05:54:36.589Z,1.11
2023-04-01T05:57:03.772Z,1.06
2023-04-01T05:59:32.431Z,1.10
2023-04-01T06:02:00.244Z,1.12
2023-04-01T06:04:32.898Z,1.18
2023-04-01T06:07:00.600Z,1.14
2023-04-01T06:09:30.321Z,1.10
2023-04-01T06:12:09.922Z,1.15
2023-04-01T06:15:14.127Z,1.17
2023-04-01T06:18:12.368Z,1.29
2023-04-01T06:20:54.538Z,1.50
2023-04-01T06:23:34.661Z,1.61
2023-04-01T06:26:22.565Z,1.85
2023-04-01T06:29:35.801Z,2.15
2023-04-01T06:32:18.258Z,2.50
2023-04-01T06:35:13.409Z,2.81
2023-04-01T06:37:45.310Z,2.86
2023-04-01T06:40:12.585Z,3.13
2023-04-01T06:43:16.929Z,3.33
2023-04-01T06:46:30.406Z,3.54
2023-04-01T06:49:56.837Z,3.94
2023-04-01T06:52:54.012Z,4.10
2023-04-01T06:55:44.621Z,4.29
2023-04-01T06:58:23.374Z,4.46
2023-04-01T07:00:55.230Z,4.59
2023-04-01T07:03:35.203Z,4.60
2023-04-01T07:06:07.692Z,4.33
2023-04-01T07:08:42.392Z,4.00
2023-04-01T07:11:24.068Z,3.69
2023-04-01T07:14:23.775Z,3.74
2023-04-01T07:17:16.279Z,3.72
2023-04-01T07:19:52.522Z,3.61
2023-04-01T07:22:35.204Z,3.54
2023-04-01T07:25:45.653Z,3.66
2023-04-01T07:28:41.790Z,3.74
2023-04-01T07:31:42.817Z,3.70
2023-04-01T07:34:27.969Z,3.91
2023-04-01T07:36:57.664Z,4.24
2023-04-01T07:39:50.891Z,4.41
2023-04-01T07:42:55.918Z,4.68
2023-04-01T07:45:45.986Z,5.28
2023-04-01T07:48:24.866Z,5.18
2023-04-01T07:51:03.938Z,5.40
2023-04-01T07:54:13.143Z,5.37
2023-04-01T07:56:56.118Z,5.36
2023-04-01T08:00:10.936Z,5.44
2023-04-01T08:03:32.197Z,5.92
2023-04-01T08:06:17.196Z,5.93
2023-04-01T08:08:50.740Z,5.89
2023-04-01T08:12:03.103Z,6.10
2023-04-01T08:14:57.751Z,5.77
2023-04-01T08:17:58.540Z,5.77
2023-04-01T08:21:00.205Z,6.33
2023-04-01T08:23:29.918Z,7.18
2023-04-01T08:26:10.936Z,7.27
2023-04-01T08:28:46.236Z,6.82
2023-04-01T08:31:26.915Z,6.66
2023-04-01T08:33:55.365Z,6.84
2023-04-01T08:36:36.036Z,7.20
2023-04-01T08:39:26.545Z,7.46
2023-04-01T08:42:30.414Z,8.27
2023-04-01T08:45:23.502Z,9.01
2023-04-01T08:48:34.131Z,8.15
2023-04-01T08:51:29.099Z,9.20
2023-04-01T08:54:22.508Z,10.26
2023-04-01T08:57:12.151Z,10.16
2023-04-01T09:00:08.512Z,8.44
2023-04-01T09:03:15.152Z,7.12
2023-04-01T09:05:42.209Z,7.93
2023-04-01T09:08:33.480Z,8.08
2023-04-01T09:11:46.231Z,9.11
2023-04-01T09:15:03.146Z,9.16
2023-04-01T09:17:46.415Z,8.79
2023-04-01T09:20:38.157Z,8.29
2023-04-01T09:23:06.391Z,8.71
2023-04-01T09:25:51.879Z,9.87
2023-04-01T09:28:19.925Z,10.31
2023-04-01T09:31:05.345Z,10.49
2023-04-01T09:34:00.520Z,10.29
2023-04-01T09:36:55.137Z,8.51
2023-04-01T09:39:53.049Z,8.74
2023-04-01T09:42:43.807Z,9.86
2023-04-01T09:45:53.803Z,11.31
2023-04-01T09:48:30.523Z,10.91
2023-04-01T09:51:21.653Z,9.31
2023-04-01T09:54:04.134Z,9.79
2023-04-01T09:57:02.570Z,11.38
2023-04-01T09:59:51.450Z,13.02
2023-04-01T10:03:18.590Z,13.22
2023-04-01T10:06:10.363Z,10.47
2023-04-01T10:08:55.723Z,11.13
2023-04-01T10:11:58.098Z,11.13
2023-04-01T10:15:07.076Z,12.91
2023-04-01T10:17:50.542Z,13.88
2023-04-01T10:20:52.928Z,14.03
2023-04-01T10:23:47.642Z,14.15
2023-04-01T10:27:10.288Z,14.99
2023-04-01T10:30:15.327Z,15.13
2023-04-01T10:33:01.573Z,16.22
2023-04-01T10:35:54.379Z,16.73
2023-04-01T10:39:00.167Z,15.97
2023-04-01T10:41:45.639Z,15.78
2023-04-01T10:44:46.455Z,16.74
2023-04-01T10:47:47.905Z,17.31
2023-04-01T10:50:36.202Z,16.69
2023-04-01T10:53:31.676Z,16.40
2023-04-01T10:56:54.480Z,17.05
2023-04-01T11:00:04.079Z,15.57
2023-04-01T11:03:12.470Z,14.35
2023-04-01T11:06:52.489Z,13.20
2023-04-01T11:09:44.771Z,12.58
2023-04-01T11:12:28.191Z,12.35
2023-04-01T11:15:13.478Z,11.59
2023-04-01T11:18:05.258Z,11.87
2023-04-01T11:21:02.635Z,11.63
2023-04-01T11:23:32.750Z,11.48
2023-04-01T11:26:08.508Z,10.97
2023-04-01T11:29:22.447Z,10.45
2023-04-01T11:32:11.228Z,9.94
2023-04-01T11:34:47.502Z,9.78
2023-04-01T11:37:28.043Z,10.01
2023-04-01T11:40:39.004Z,10.16
2023-04-01T11:43:37.971Z,9.75
2023-04-01T11:46:25.835Z,9.60
2023-04-01T11:49:23.758Z,10.03
2023-04-01T11:52:25.807Z,10.29
2023-04-01T11:55:17.610Z,10.34
2023-04-01T11:57:56.510Z,10.84
2023-04-01T12:01:11.228Z,11.59
2023-04-01T12:03:57.569Z,11.87
2023-04-01T12:06:35.037Z,11.71
2023-04-01T12:09:35.657Z,11.70
2023-04-01T12:12:17.348Z,12.39
2023-04-01T12:14:50.243Z,12.35
2023-04-01T12:17:42.274Z,11.40
2023-04-01T12:20:23.310Z,10.96
2023-04-01T12:23:43.679Z,10.29
2023-04-01T12:26:31.686Z,9.70
2023-04-01T12:29:26.166Z,9.73
2023-04-01T12:32:04.416Z,9.60
2023-04-01T12:35:11.531Z,9.25
2023-04-01T12:38:07.629Z,8.99
2023-04-01T12:40:57.459Z,8.62
2023-04-01T12:43:36.880Z,8.41
2023-04-01T12:46:03.933Z,8.38
2023-04-01T12:49:00.824Z,8.36
2023-04-01T12:52:03.533Z,8.32
2023-04-01T12:55:01.173Z,8.27
2023-04-01T12:58:00.577Z,8.25
2023-04-01T13:01:01.358Z,8.12
2023-04-01T13:03:42.302Z,8.16
2023-04-01T13:06:27.764Z,8.24
2023-04-01T13:09:18.275Z,7.92
2023-04-01T13:12:13.119Z,7.77
2023-04-01T13:15:02.035Z,7.71
2023-04-01T13:17:54.486Z,7.47
2023-04-01T13:20:52.531Z,7.53
2023-04-01T13:23:51.233Z,7.36
2023-04-01T13:27:19.365Z,7.24
2023-04-01T13:29:58.932Z,7.02
2023-04-01T13:32:48.142Z,7.04
2023-04-01T13:35:37.321Z,7.03
2023-04-01T13:38:21.120Z,6.87
2023-04-01T13:41:02.213Z,6.76
2023-04-01T13:43:43.607Z,6.59
2023-04-01T13:46:38.731Z,6.66
2023-04-01T13:49:24.310Z,6.85
2023-04-01T13:52:13.053Z,6.83
2023-04-01T13:54:43.016Z,6.79
2023-04-01T13:57:21.327Z,6.79
2023-04-01T14:00:14.202Z,6.81
2023-04-01T14:03:12.806Z,6.86
2023-04-01T14:05:55.941Z,6.74
2023-04-01T14:08:51.262Z,6.57
2023-04-01T14:11:28.682Z,6.42
2023-04-01T14:14:26.370Z,6.47
2023-04-01T14:17:26.043Z,6.42
2023-04-01T14:20:12.189Z,6.37
2023-04-01T14:23:25.159Z,6.40
2023-04-01T14:26:28.850Z,6.32
2023-04-01T14:29:27.178Z,6.22
2023-04-01T14:32:15.798Z,6.22
2023-04-01T14:35:01.866Z,6.31
2023-04-01T14:38:06.732Z,6.24
2023-04-01T14:41:01.260Z,6.18
2023-04-01T14:43:43.734Z,6.11
2023-04-01T14:46:18.661Z,6.01
2023-04-01T14:48:54.457Z,6.05
2023-04-01T14:51:36.345Z,6.00
2023-04-01T14:54:23.808Z,5.90
2023-04-01T14:57:10.915Z,5.88
2023-04-01T14:59:42.685Z,5.89
2023-04-01T15:02:47.640Z,5.94
2023-04-01T15:08:24.354Z,5.96
2023-04-01T15:11:31.218Z,6.00
2023-04-01T15:14:52.375Z,5.96
2023-04-01T15:17:43.031Z,5.96
2023-04-01T15:20:16.047Z,5.86
2023-04-01T15:22:45.955Z,5.83
2023-04-01T15:25:50.159Z,5.78
2023-04-01T15:28:44.374Z,5.75
2023-04-01T15:31:20.030Z,5.83
2023-04-01T15:34:11.302Z,5.80
2023-04-01T15:36:45.530Z,5.69
2023-04-01T15:39:17.347Z,5.69
2023-04-01T15:41:57.988Z,5.69
2023-04-01T15:44:39.586Z,5.65
2023-04-01T15:47:26.809Z,5.56
2023-04-01T15:50:24.953Z,5.56
2023-04-01T15:53:16.416Z,5.53
2023-04-01T15:56:04.023Z,5.51
2023-04-01T15:58:55.667Z,5.49
2023-04-01T16:01:48.105Z,5.47
2023-04-01T16:04:48.272Z,5.48
2023-04-01T16:07:53.648Z,5.44
2023-04-01T16:10:37.382Z,5.37
2023-04-01T16:13:13.295Z,5.32
2023-04-01T16:15:58.985Z,5.21
2023-04-01T16:18:51.653Z,5.22
2023-04-01T16:21:48.910Z,5.16
2023-04-01T16:24:52.799Z,5.17
2023-04-01T16:27:37.429Z,5.19
2023-04-01T16:30:45.374Z,5.18
2023-04-01T16:33:19.414Z,5.21
2023-04-01T16:36:22.076Z,5.21
2023-04-01T16:39:09.114Z,5.11
2023-04-01T16:41:38.986Z,5.10
2023-04-01T16:44:21.690Z,4.94
2023-04-01T16:46:53.680Z,4.98
2023-04-01T16:49:42.590Z,4.97
2023-04-01T16:52:46.240Z,4.96
2023-04-01T16:55:18.720Z,4.94
2023-04-01T16:57:53.960Z,4.93
2023-04-01T17:00:26.641Z,4.95
2023-04-01T17:02:57.851Z,4.98
2023-04-01T17:05:41.233Z,4.92
2023-04-01T17:08:50.651Z,4.87
2023-04-01T17:11:24.139Z,4.84
2023-04-01T17:14:32.935Z,4.90
2023-04-01T17:17:33.509Z,4.86
2023-04-01T17:20:38.897Z,4.85
2023-04-01T17:23:15.024Z,4.78
2023-04-01T17:25:42.261Z,4.75
2023-04-01T17:28:35.821Z,4.69
2023-04-01T17:31:12.389Z,4.66
2023-04-01T17:33:44.540Z,4.69
2023-04-01T17:36:20.375Z,4.74
2023-04-01T17:39:14.590Z,4.71
2023-04-01T17:42:01.231Z,4.71
2023-04-01T17:44:36.807Z,4.72
2023-04-01T17:47:15.897Z,4.67
2023-04-01T17:49:56.262Z,4.62
2023-04-01T17:52:53.497Z,4.65
2023-04-01T17:55:57.215Z,4.69
2023-04-01T17:59:02.110Z,4.62
2023-04-01T18:01:47.728Z,4.68
2023-04-01T18:04:45.952Z,4.68
2023-04-01T18:07:31.752Z,4.67
2023-04-01T18:10:34.601Z,4.64
2023-04-01T18:13:23.147Z,4.67
2023-04-01T18:16:16.379Z,4.69
2023-04-01T18:19:08.604Z,4.62
2023-04-01T18:21:58.174Z,4.54
2023-04-01T18:24:30.787Z,4.62
2023-04-01T18:27:11.159Z,4.58
2023-04-01T18:29:57.946Z,4.64
2023-04-01T18:32:43.567Z,4.65
2023-04-01T18:35:29.695Z,4.65
2023-04-01T18:37:59.668Z,4.67
2023-04-01T18:40:40.790Z,4.60
2023-04-01T18:43:40.164Z,4.63
2023-04-01T18:46:19.383Z,4.63
2023-04-01T18:49:05.411Z,4.66
2023-04-01T18:51:32.972Z,4.67
2023-04-01T18:54:13.094Z,4.64
2023-04-01T18:56:43.045Z,4.60
2023-04-01T18:59:20.774Z,4.62
2023-04-01T19:02:33.130Z,4.70
2023-04-01T19:05:18.830Z,4.72
2023-04-01T19:07:57.495Z,4.66
2023-04-01T19:10:57.618Z,4.68
2023-04-01T19:13:38.785Z,4.57
2023-04-01T19:16:40.770Z,4.65
2023-04-01T19:19:34.670Z,4.66
2023-04-01T19:22:29.423Z,4.67
2023-04-01T19:25:27.327Z,4.65
2023-04-01T19:28:21.328Z,4.71
2023-04-01T19:30:58.458Z,4.68
2023-04-01T19:33:41.379Z,4.70
2023-04-01T19:36:43.773Z,4.71
2023-04-01T19:39:29.723Z,4.72
2023-04-01T19:42:28.034Z,4.74
2023-04-01T19:45:11.905Z,4.71
2023-04-01T19:47:51.739Z,4.70
2023-04-01T19:50:41.714Z,4.65
2023-04-01T19:53:35.917Z,4.73
2023-04-01T19:56:24.683Z,4.72
2023-04-01T19:59:06.950Z,4.73
2023-04-01T20:01:45.314Z,4.75
2023-04-01T20:04:18.792Z,4.71
2023-04-01T20:07:03.931Z,4.71
2023-04-01T20:09:46.697Z,4.66
2023-04-01T20:12:26.690Z,4.63
2023-04-01T20:15:01.857Z,4.63
2023-04-01T20:17:41.631Z,4.65
2023-04-01T20:20:11.424Z,4.60
2023-04-01T20:22:48.058Z,4.57
2023-04-01T20:25:33.626Z,4.58
2023-04-01T20:28:23.117Z,4.57
2023-04-01T20:31:08.933Z,4.62
2023-04-01T20:33:41.771Z,4.61
2023-04-01T20:36:50.057Z,4.61
2023-04-01T20:39:44.822Z,4.59
2023-04-01T20:42:36.130Z,4.61
2023-04-01T20:46:00.276Z,4.63
2023-04-01T20:48:42.453Z,4.61
2023-04-01T20:55:13.434Z,4.59
2023-04-01T21:02:17.828Z,4.60
2023-04-01T21:05:21.500Z,4.64
2023-04-01T21:08:13.218Z,4.70
2023-04-01T21:11:19.496Z,4.74
2023-04-01T21:13:49.452Z,4.73
2023-04-01T21:16:22.106Z,4.75
2023-04-01T21:19:14.150Z,4.78
2023-04-01T21:21:47.210Z,4.82
2023-04-01T21:24:38.860Z,4.82
2023-04-01T21:27:24.339Z,4.81
2023-04-01T21:30:09.983Z,4.82
2023-04-01T21:32:45.829Z,4.82
2023-04-01T21:35:34.444Z,4.82
2023-04-01T21:38:16.524Z,4.86
2023-04-01T21:41:19.316Z,4.87
2023-04-01T21:44:10.486Z,4.85
2023-04-01T21:47:03.031Z,4.84
2023-04-01T21:50:26.474Z,4.85
2023-04-01T21:52:56.264Z,4.79
2023-04-01T21:55:32.452Z,4.76
2023-04-01T21:58:08.663Z,4.83
2023-04-01T22:01:01.714Z,4.85
2023-04-01T22:03:37.971Z,4.86
2023-04-01T22:06:16.531Z,4.86
2023-04-01T22:08:53.050Z,4.84
2023-04-01T22:11:35.654Z,4.87
2023-04-01T22:14:24.889Z,4.88
2023-04-01T22:17:06.810Z,4.88
2023-04-01T22:20:13.669Z,4.88
2023-04-01T22:23:03.288Z,4.83
2023-04-01T22:26:00.261Z,4.78
2023-04-01T22:28:54.401Z,4.76
2023-04-01T22:31:30.443Z,4.71
2023-04-01T22:34:06.787Z,4.71
2023-04-01T22:36:56.515Z,4.71
2023-04-01T22:39:54.062Z,4.69
2023-04-01T22:42:48.290Z,4.71
2023-04-01T22:45:34.093Z,4.73
2023-04-01T22:48:39.809Z,4.76
2023-04-01T22:51:29.006Z,4.77
2023-04-01T22:54:05.875Z,4.76
2023-04-01T22:56:37.389Z,4.80
2023-04-01T22:59:23.456Z,4.81
2023-04-01T23:02:18.214Z,4.84
2023-04-01T23:04:50.553Z,4.82
2023-04-01T23:07:25.058Z,4.83
2023-04-01T23:09:54.584Z,4.84
2023-04-01T23:12:22.447Z,4.85
2023-04-01T23:14:55.037Z,4.85
2023-04-01T23:17:40.193Z,4.88
2023-04-01T23:20:19.110Z,4.84
2023-04-01T23:23:07.406Z,4.84
2023-04-01T23:25:38.090Z,4.80
2023-04-01T23:28:20.247Z,4.86
2023-04-01T23:30:49.688Z,4.89
2023-04-01T23:33:19.655Z,4.94
2023-04-01T23:36:11.119Z,4.96
2023-04-01T23:38:40.573Z,4.98
2023-04-01T23:41:08.409Z,5.00
2023-04-01T23:43:38.576Z,5.00
2023-04-01T23:46:08.545Z,4.98
2023-04-01T23:48:41.716Z,4.98
2023-04-01T23:51:22.353Z,4.98
2023-04-01T23:53:58.751Z,4.98
2023-04-01T23:56:35.863Z,4.99
2023-04-01T23:59:04.251Z,4.98
